Time;durP1;ratioP1;P1;durP2;ratioP2;P2;SDS_P1;SDS_P2;PMS_P1;PMS_P2;Temp;Humidity;BMP_temperature;BMP_pressure;BME280_temperature;BME280_humidity;BME280_pressure;Samples;Min_cycle;Max_cycle;Signal;HPM_P1;HPM_P2
2023/11/12 00:00:38;;;;;;;11.75;2.20;;;26.50;23.90;;;;;;5024706;28;20144;-63
2023/11/12 00:03:04;;;;;;;10.82;2.50;;;27.00;23.20;;;;;;5027196;28;20138;-65
2023/11/12 00:05:31;;;;;;;9.27;2.60;;;26.90;23.40;;;;;;5024759;28;20540;-63
2023/11/12 00:07:57;;;;;;;8.00;2.13;;;26.60;23.20;;;;;;5029018;28;20082;-63
2023/11/12 00:10:24;;;;;;;27.40;3.35;;;26.30;23.80;;;;;;5028906;28;20041;-66
2023/11/12 00:12:50;;;;;;;48.22;5.30;;;26.10;24.60;;;;;;5031097;28;20062;-66
2023/11/12 00:15:17;;;;;;;16.80;2.97;;;25.80;24.90;;;;;;5025953;28;20063;-64
2023/11/12 00:17:44;;;;;;;10.52;2.97;;;25.60;24.70;;;;;;5027589;28;20129;-68
2023/11/12 00:20:14;;;;;;;15.20;3.83;;;25.50;25.00;;;;;;5028466;28;20124;-66
2023/11/12 00:22:41;;;;;;;40.83;4.75;;;25.40;24.90;;;;;;5027748;28;20069;-63
2023/11/12 00:25:10;;;;;;;19.00;3.80;;;25.30;25.10;;;;;;5030091;28;20065;-63
2023/11/12 00:27:37;;;;;;;13.52;4.15;;;25.20;25.50;;;;;;5029931;28;20065;-63
2023/11/12 00:30:04;;;;;;;12.95;3.85;;;25.00;25.70;;;;;;5029257;28;20194;-63
2023/11/12 00:32:32;;;;;;;13.23;3.42;;;24.90;25.60;;;;;;5028620;28;20532;-63
2023/11/12 00:34:59;;;;;;;20.98;3.70;;;24.70;25.80;;;;;;5029408;28;20068;-64
2023/11/12 00:37:25;;;;;;;18.77;3.85;;;24.60;25.90;;;;;;5029062;28;20078;-62
2023/11/12 00:39:51;;;;;;;13.57;4.25;;;24.40;26.50;;;;;;5028797;28;20061;-62
2023/11/12 00:42:18;;;;;;;16.15;4.78;;;24.30;26.80;;;;;;5028587;28;20520;-63
2023/11/12 00:44:45;;;;;;;22.17;5.32;;;24.10;27.10;;;;;;5029451;28;20090;-63
2023/11/12 00:47:12;;;;;;;17.60;7.40;;;24.00;27.60;;;;;;5027014;28;21419;-63
2023/11/12 00:49:38;;;;;;;24.60;9.40;;;23.90;27.40;;;;;;5027859;28;20071;-65
2023/11/12 00:52:05;;;;;;;24.48;11.88;;;23.70;27.60;;;;;;5027992;28;20068;-64
2023/11/12 00:54:32;;;;;;;32.25;15.38;;;23.60;27.70;;;;;;5028080;28;20077;-64
2023/11/12 00:56:59;;;;;;;38.20;15.68;;;23.50;27.60;;;;;;5029193;28;20120;-64
2023/11/12 00:59:25;;;;;;;32.92;15.73;;;23.30;27.90;;;;;;5027576;28;20074;-63
2023/11/12 01:01:51;;;;;;;39.55;14.98;;;23.20;28.00;;;;;;5027275;28;20071;-64
2023/11/12 01:04:18;;;;;;;30.63;14.05;;;23.10;27.80;;;;;;5026547;28;20076;-63
2023/11/12 01:06:45;;;;;;;35.40;11.95;;;22.90;28.30;;;;;;5026354;28;20078;-63
2023/11/12 01:09:12;;;;;;;32.47;13.60;;;22.80;28.70;;;;;;5028526;28;20078;-62
2023/11/12 01:11:38;;;;;;;38.85;16.67;;;22.60;29.00;;;;;;5027678;28;20074;-63
2023/11/12 01:14:05;;;;;;;45.45;15.48;;;22.50;29.30;;;;;;5026880;28;20065;-63
2023/11/12 01:16:31;;;;;;;41.35;14.10;;;22.40;29.50;;;;;;5025442;28;20488;-64
2023/11/12 01:18:58;;;;;;;32.15;12.05;;;22.30;29.70;;;;;;5025786;28;20076;-62
2023/11/12 01:21:26;;;;;;;30.75;10.30;;;22.20;30.00;;;;;;5025949;28;20083;-62
2023/11/12 01:23:53;;;;;;;37.15;9.30;;;22.10;30.40;;;;;;5025204;28;20545;-62
2023/11/12 01:26:19;;;;;;;34.83;7.75;;;22.00;30.50;;;;;;5026616;28;20466;-61
2023/11/12 01:28:45;;;;;;;35.28;8.73;;;21.90;30.40;;;;;;5026095;28;20080;-62
2023/11/12 01:31:13;;;;;;;28.70;8.38;;;21.80;30.10;;;;;;5028120;28;20075;-63
2023/11/12 01:33:40;;;;;;;42.08;9.20;;;21.80;30.30;;;;;;5026955;28;20641;-63
2023/11/12 01:36:07;;;;;;;42.33;9.35;;;21.70;30.30;;;;;;5025372;28;20085;-64
2023/11/12 01:38:33;;;;;;;31.92;9.23;;;21.60;30.00;;;;;;5027779;28;20074;-64
2023/11/12 01:41:03;;;;;;;29.98;9.68;;;21.60;30.00;;;;;;5027627;28;20174;-63
2023/11/12 01:43:32;;;;;;;43.70;11.68;;;21.50;29.90;;;;;;5024044;28;20184;-63
2023/11/12 01:46:04;;;;;;;46.55;10.98;;;21.40;30.00;;;;;;5027395;28;20084;-64
2023/11/12 01:48:31;;;;;;;49.10;11.32;;;21.30;30.30;;;;;;5025634;28;20074;-61
2023/11/12 01:50:59;;;;;;;41.80;10.50;;;21.30;30.50;;;;;;5025963;28;20085;-61
2023/11/12 01:53:26;;;;;;;35.00;9.40;;;21.20;30.50;;;;;;5024776;28;20495;-64
2023/11/12 01:55:55;;;;;;;36.20;11.75;;;21.10;30.70;;;;;;5027767;28;20074;-61
2023/11/12 01:58:22;;;;;;;42.95;13.15;;;21.00;30.80;;;;;;5027165;28;20077;-64
2023/11/12 02:00:48;;;;;;;41.58;15.40;;;21.00;31.30;;;;;;5026465;28;20097;-63
2023/11/12 02:03:18;;;;;;;57.35;19.38;;;20.90;31.60;;;;;;5027653;28;20069;-64
2023/11/12 02:05:45;;;;;;;66.97;21.42;;;20.80;31.80;;;;;;5025679;28;20094;-62
2023/11/12 02:08:12;;;;;;;57.05;21.15;;;20.80;33.20;;;;;;5026989;28;20126;-62
2023/11/12 02:10:39;;;;;;;56.63;20.33;;;20.70;32.60;;;;;;5026747;28;20080;-62
2023/11/12 02:13:06;;;;;;;63.58;20.20;;;20.60;33.00;;;;;;5025221;28;20592;-64
2023/11/12 02:15:34;;;;;;;66.03;21.10;;;20.60;33.60;;;;;;5025333;28;20084;-64
2023/11/12 02:18:00;;;;;;;65.85;19.70;;;20.50;33.80;;;;;;5027077;28;20460;-63
2023/11/12 02:20:27;;;;;;;79.20;20.27;;;20.40;32.80;;;;;;5024735;28;20458;-62
2023/11/12 02:22:54;;;;;;;62.97;19.55;;;20.40;32.40;;;;;;5022451;28;20080;-63
2023/11/12 02:25:21;;;;;;;61.75;18.77;;;20.30;32.70;;;;;;5028569;28;20108;-61
2023/11/12 02:27:48;;;;;;;64.50;19.42;;;20.20;32.70;;;;;;5024897;28;20069;-62
2023/11/12 02:30:15;;;;;;;61.78;18.88;;;20.20;32.70;;;;;;5026237;28;20142;-63
2023/11/12 02:32:42;;;;;;;70.22;18.63;;;20.20;32.90;;;;;;5027240;28;20600;-62
2023/11/12 02:35:08;;;;;;;56.90;18.27;;;20.10;32.60;;;;;;5027061;28;20081;-64
2023/11/12 02:37:35;;;;;;;62.58;19.60;;;20.00;32.80;;;;;;5025326;28;20552;-60
2023/11/12 02:40:02;;;;;;;66.07;19.17;;;19.90;32.80;;;;;;5025491;28;20104;-62
2023/11/12 02:42:29;;;;;;;63.95;19.70;;;20.00;33.20;;;;;;5024119;28;20093;-64
2023/11/12 02:44:59;;;;;;;72.68;23.52;;;19.80;32.30;;;;;;5026921;28;20088;-64
2023/11/12 02:47:26;;;;;;;62.58;21.25;;;19.80;33.00;;;;;;5024407;28;20546;-62
2023/11/12 02:49:53;;;;;;;71.38;22.30;;;19.70;33.40;;;;;;5026497;28;20109;-63
2023/11/12 02:52:19;;;;;;;63.03;20.65;;;19.60;33.80;;;;;;5025713;28;20116;-63
2023/11/12 02:54:46;;;;;;;72.10;21.25;;;19.50;33.90;;;;;;5025948;28;20094;-65
2023/11/12 02:57:12;;;;;;;77.72;20.73;;;19.60;33.90;;;;;;5024766;28;20116;-61
2023/11/12 02:59:39;;;;;;;73.03;20.88;;;19.50;34.10;;;;;;5025838;28;20073;-65
2023/11/12 03:02:07;;;;;;;84.78;20.58;;;19.40;35.20;;;;;;5026063;28;20078;-64
2023/11/12 03:04:33;;;;;;;83.43;22.30;;;19.40;35.60;;;;;;5024625;28;20485;-63
2023/11/12 03:07:00;;;;;;;81.78;20.25;;;19.30;35.90;;;;;;5027736;28;20449;-64
2023/11/12 03:09:27;;;;;;;71.13;20.88;;;19.30;35.80;;;;;;5026047;28;20078;-63
2023/11/12 03:11:53;;;;;;;85.18;21.30;;;19.30;36.50;;;;;;5027361;28;20077;-63
2023/11/12 03:14:21;;;;;;;83.97;21.40;;;19.10;36.30;;;;;;5024024;28;20078;-64
2023/11/12 03:16:51;;;;;;;85.00;20.80;;;19.00;36.40;;;;;;5027444;28;20081;-64
2023/11/12 03:19:18;;;;;;;77.95;21.10;;;19.00;36.30;;;;;;5022619;28;20508;-63
2023/11/12 03:21:55;;;;;;;83.00;21.98;;;18.90;36.90;;;;;;5022293;28;20551;-63
2023/11/12 03:24:22;;;;;;;97.72;20.65;;;18.90;36.90;;;;;;5028122;28;20104;-65
2023/11/12 03:26:52;;;;;;;105.07;22.95;;;18.90;36.90;;;;;;5027287;28;20103;-65
2023/11/12 03:29:19;;;;;;;96.20;22.13;;;18.90;37.20;;;;;;5026805;28;20076;-64
2023/11/12 03:31:48;;;;;;;96.70;21.50;;;18.80;37.80;;;;;;5042352;28;20129;-65
2023/11/12 03:34:15;;;;;;;102.68;22.77;;;18.80;38.00;;;;;;5027238;28;20453;-65
2023/11/12 03:36:42;;;;;;;96.82;22.52;;;18.70;38.00;;;;;;5027781;28;20079;-66
2023/11/12 03:39:09;;;;;;;84.60;22.85;;;18.60;37.80;;;;;;5023420;28;20111;-65
2023/11/12 03:41:35;;;;;;;97.88;24.75;;;18.60;38.00;;;;;;5025694;28;20137;-64
2023/11/12 03:44:02;;;;;;;103.57;25.27;;;18.60;38.50;;;;;;5026974;28;20102;-64
2023/11/12 03:46:28;;;;;;;96.18;23.35;;;18.60;37.70;;;;;;5026350;28;20097;-66
2023/11/12 03:48:55;;;;;;;94.00;24.83;;;18.50;37.70;;;;;;5026261;28;20435;-65
2023/11/12 03:51:22;;;;;;;100.00;28.20;;;18.50;38.50;;;;;;5027768;28;20075;-61
2023/11/12 03:53:49;;;;;;;95.93;27.55;;;18.40;37.70;;;;;;5028634;28;20108;-64
2023/11/12 03:56:15;;;;;;;98.97;27.65;;;18.40;37.60;;;;;;5026885;28;20187;-64
2023/11/12 03:58:42;;;;;;;101.45;26.60;;;18.30;38.10;;;;;;5025935;28;20186;-64
2023/11/12 04:01:08;;;;;;;99.97;28.17;;;18.40;38.30;;;;;;5027767;28;20080;-62
2023/11/12 04:03:36;;;;;;;116.10;26.45;;;18.40;39.10;;;;;;5024476;28;20613;-62
2023/11/12 04:06:03;;;;;;;109.38;24.60;;;18.30;39.10;;;;;;5026688;28;20092;-64
2023/11/12 04:08:30;;;;;;;81.53;24.48;;;18.30;38.90;;;;;;5027440;28;20090;-65
2023/11/12 04:10:56;;;;;;;91.00;26.05;;;18.20;38.90;;;;;;5025316;28;20126;-64
2023/11/12 04:13:23;;;;;;;97.10;28.25;;;18.20;39.40;;;;;;5026891;28;20090;-63
2023/11/12 04:15:49;;;;;;;105.70;30.05;;;18.10;38.50;;;;;;5025061;28;20158;-62
2023/11/12 04:18:16;;;;;;;93.60;26.92;;;18.10;38.70;;;;;;5025126;28;20161;-63
2023/11/12 04:20:42;;;;;;;98.55;27.70;;;18.00;38.50;;;;;;5020984;28;20087;-63
2023/11/12 04:23:09;;;;;;;102.78;28.48;;;18.00;38.50;;;;;;5027237;28;20087;-64
2023/11/12 04:25:35;;;;;;;118.05;32.65;;;18.00;39.20;;;;;;5029520;28;20153;-65
2023/11/12 04:28:02;;;;;;;106.15;30.02;;;18.00;38.80;;;;;;5025686;28;20512;-65
2023/11/12 04:30:29;;;;;;;123.20;30.02;;;17.90;39.70;;;;;;5026884;28;20076;-64
2023/11/12 04:32:55;;;;;;;100.05;30.17;;;17.90;39.80;;;;;;5026066;28;20111;-63
2023/11/12 04:35:22;;;;;;;118.45;31.65;;;17.80;39.00;;;;;;5024320;28;20149;-64
2023/11/12 04:37:48;;;;;;;95.00;32.63;;;17.80;39.60;;;;;;5023087;28;20471;-63
2023/11/12 04:40:16;;;;;;;119.25;33.60;;;17.70;39.50;;;;;;5026046;28;20130;-63
2023/11/12 04:42:43;;;;;;;106.40;30.58;;;17.70;39.10;;;;;;5025463;28;20190;-64
2023/11/12 04:45:11;;;;;;;137.68;34.00;;;17.80;38.70;;;;;;5026535;28;20581;-64
2023/11/12 04:47:37;;;;;;;106.85;31.48;;;17.70;38.00;;;;;;5024678;28;20079;-63
2023/11/12 04:50:05;;;;;;;109.30;33.03;;;17.70;39.50;;;;;;5025404;28;20078;-63
2023/11/12 04:52:31;;;;;;;117.38;31.27;;;17.70;39.70;;;;;;5023154;28;20086;-62
2023/11/12 04:54:57;;;;;;;105.20;30.88;;;17.60;39.70;;;;;;5023393;28;20568;-64
2023/11/12 04:57:24;;;;;;;104.28;31.30;;;17.50;39.30;;;;;;5025510;28;20635;-63
2023/11/12 04:59:50;;;;;;;118.63;31.77;;;17.50;40.80;;;;;;5024471;28;20195;-63
2023/11/12 05:02:18;;;;;;;109.70;31.63;;;17.40;40.30;;;;;;5024576;28;20094;-62
2023/11/12 05:04:44;;;;;;;118.43;33.17;;;17.40;40.10;;;;;;5022638;28;20179;-64
2023/11/12 05:07:11;;;;;;;98.53;34.30;;;17.30;39.80;;;;;;5025562;28;20131;-62
2023/11/12 05:09:37;;;;;;;103.35;32.03;;;17.20;40.00;;;;;;5025962;28;20086;-63
2023/11/12 05:12:04;;;;;;;102.25;32.58;;;17.20;40.40;;;;;;5025002;28;20080;-60
2023/11/12 05:14:31;;;;;;;111.68;33.55;;;17.20;40.30;;;;;;5025659;28;20080;-63
2023/11/12 05:16:57;;;;;;;126.72;34.53;;;17.10;40.10;;;;;;5024517;28;20545;-62
2023/11/12 05:19:23;;;;;;;113.18;32.92;;;17.10;40.70;;;;;;5026247;28;20075;-62
2023/11/12 05:21:50;;;;;;;104.53;33.95;;;17.10;41.20;;;;;;5026513;28;20087;-61
2023/11/12 05:24:16;;;;;;;113.03;35.85;;;17.10;41.10;;;;;;5025506;28;20166;-63
2023/11/12 05:26:43;;;;;;;131.70;44.55;;;17.10;41.10;;;;;;5027865;28;20550;-62
2023/11/12 05:29:09;;;;;;;125.85;45.28;;;17.10;40.20;;;;;;5028131;28;20439;-61
2023/11/12 05:31:36;;;;;;;132.18;45.83;;;17.10;40.50;;;;;;5026918;28;20083;-60
2023/11/12 05:34:03;;;;;;;141.80;46.45;;;17.10;41.20;;;;;;5026716;28;20511;-62
2023/11/12 05:36:29;;;;;;;127.00;41.97;;;17.10;41.20;;;;;;5026595;28;20167;-63
2023/11/12 05:38:56;;;;;;;137.70;44.38;;;17.10;41.20;;;;;;5025879;28;20407;-62
2023/11/12 05:41:22;;;;;;;133.57;46.13;;;17.10;41.40;;;;;;5027357;28;20179;-65
2023/11/12 05:43:50;;;;;;;141.73;45.65;;;17.00;41.70;;;;;;5026819;28;20138;-63
2023/11/12 05:46:17;;;;;;;145.10;46.13;;;16.90;41.60;;;;;;5027266;28;20551;-62
2023/11/12 05:48:43;;;;;;;125.68;46.17;;;16.90;41.80;;;;;;5024019;28;20159;-62
2023/11/12 05:51:09;;;;;;;155.07;48.63;;;16.90;42.30;;;;;;5027471;28;20087;-62
2023/11/12 05:53:36;;;;;;;141.88;47.50;;;16.80;41.70;;;;;;5027929;28;20084;-60
2023/11/12 05:56:03;;;;;;;152.27;47.13;;;16.80;41.60;;;;;;5026949;28;20086;-62
2023/11/12 05:58:30;;;;;;;153.32;48.97;;;16.80;41.20;;;;;;5026546;28;20138;-62
2023/11/12 06:00:58;;;;;;;153.48;47.83;;;16.80;41.60;;;;;;5027346;28;20111;-63
2023/11/12 06:03:25;;;;;;;152.60;48.05;;;16.80;42.50;;;;;;5024831;28;20075;-62
2023/11/12 06:05:51;;;;;;;134.43;48.97;;;16.80;41.90;;;;;;5025610;28;20114;-63
2023/11/12 06:08:18;;;;;;;163.73;48.40;;;16.80;41.70;;;;;;5026891;28;20159;-64
2023/11/12 06:10:44;;;;;;;154.68;48.40;;;16.70;42.50;;;;;;5025181;28;20149;-62
2023/11/12 06:13:11;;;;;;;128.75;41.95;;;16.70;42.10;;;;;;5025286;28;20568;-62
2023/11/12 06:15:37;;;;;;;116.22;39.38;;;16.70;41.10;;;;;;5026417;28;20091;-62
2023/11/12 06:18:03;;;;;;;111.65;35.58;;;16.70;41.50;;;;;;5025169;28;20083;-62
2023/11/12 06:20:30;;;;;;;109.88;37.35;;;16.70;40.90;;;;;;5026658;28;20085;-59
2023/11/12 06:22:56;;;;;;;93.50;35.08;;;16.70;40.50;;;;;;5023987;28;20270;-61
2023/11/12 06:25:24;;;;;;;108.25;35.15;;;16.60;39.90;;;;;;5026511;28;20099;-61
2023/11/12 06:27:51;;;;;;;112.63;35.20;;;16.70;39.50;;;;;;5024232;28;20076;-60
2023/11/12 06:30:17;;;;;;;95.05;34.50;;;16.70;39.70;;;;;;5024985;28;20076;-61
2023/11/12 06:32:46;;;;;;;100.97;35.13;;;16.70;39.70;;;;;;5023353;28;20152;-60
2023/11/12 06:35:12;;;;;;;101.40;33.22;;;16.70;40.20;;;;;;5023019;28;20122;-60
2023/11/12 06:37:39;;;;;;;106.18;32.97;;;16.70;39.40;;;;;;5025402;28;20126;-59
2023/11/12 06:40:09;;;;;;;96.85;30.30;;;16.70;39.40;;;;;;5023587;28;20075;-60
2023/11/12 06:42:35;;;;;;;97.75;31.08;;;16.70;39.30;;;;;;5024506;28;20636;-61
2023/11/12 06:45:02;;;;;;;86.20;27.77;;;16.60;38.80;;;;;;5024540;28;20506;-60
2023/11/12 06:47:28;;;;;;;82.97;24.98;;;16.60;38.70;;;;;;5024946;28;20099;-61
2023/11/12 06:49:55;;;;;;;78.18;23.40;;;16.60;38.80;;;;;;5023240;28;20084;-61
2023/11/12 06:52:21;;;;;;;83.25;23.23;;;16.60;39.10;;;;;;5023263;28;20084;-61
2023/11/12 06:54:48;;;;;;;76.85;21.92;;;16.60;39.40;;;;;;5024817;28;20114;-60
2023/11/12 06:57:15;;;;;;;67.35;21.70;;;16.60;40.20;;;;;;5026554;28;20087;-59
2023/11/12 06:59:41;;;;;;;81.40;36.92;;;16.50;39.70;;;;;;5026285;28;20103;-58
2023/11/12 07:02:08;;;;;;;76.00;33.45;;;16.50;39.70;;;;;;5026024;28;20145;-60
2023/11/12 07:04:34;;;;;;;51.35;20.58;;;16.50;40.50;;;;;;5029215;28;20083;-59
2023/11/12 07:07:01;;;;;;;49.30;19.30;;;16.40;39.40;;;;;;5026790;28;20103;-60
2023/11/12 07:09:27;;;;;;;46.08;16.17;;;16.40;38.70;;;;;;5026271;28;20091;-61
2023/11/12 07:11:54;;;;;;;40.80;12.95;;;16.40;38.30;;;;;;5028312;28;20463;-61
2023/11/12 07:14:20;;;;;;;39.85;12.20;;;16.40;37.70;;;;;;5026436;28;20071;-60
2023/11/12 07:16:47;;;;;;;38.63;9.55;;;16.40;37.20;;;;;;5029095;28;20095;-60
2023/11/12 07:19:14;;;;;;;29.08;7.40;;;16.40;36.50;;;;;;5029368;28;20486;-57
2023/11/12 07:21:40;;;;;;;31.65;6.50;;;16.40;36.10;;;;;;5031004;28;20111;-60
2023/11/12 07:24:07;;;;;;;32.22;6.60;;;16.50;35.50;;;;;;5030618;28;20075;-59
2023/11/12 07:26:34;;;;;;;28.63;7.32;;;16.50;35.80;;;;;;5029155;28;20182;-60
2023/11/12 07:29:00;;;;;;;31.95;7.28;;;16.50;35.70;;;;;;5029893;28;20086;-61
2023/11/12 07:31:27;;;;;;;33.67;7.65;;;16.50;35.50;;;;;;5029437;28;20083;-62
2023/11/12 07:33:54;;;;;;;24.10;7.18;;;16.60;35.80;;;;;;5028465;28;20498;-61
2023/11/12 07:36:21;;;;;;;17.85;5.13;;;16.50;36.40;;;;;;5030504;28;20488;-60
2023/11/12 07:38:48;;;;;;;22.15;4.00;;;16.50;35.30;;;;;;5028542;28;20075;-57
2023/11/12 07:41:14;;;;;;;15.90;3.35;;;16.60;34.10;;;;;;5030570;28;20115;-60
2023/11/12 07:43:41;;;;;;;23.50;3.70;;;16.70;33.50;;;;;;5028430;28;20095;-58
2023/11/12 07:46:08;;;;;;;17.48;2.95;;;16.80;32.30;;;;;;5029709;28;20131;-60
2023/11/12 07:48:35;;;;;;;14.32;3.53;;;16.90;32.10;;;;;;5028476;28;20125;-62
2023/11/12 07:51:02;;;;;;;23.48;3.30;;;17.00;32.40;;;;;;5031006;28;20097;-59
2023/11/12 07:53:29;;;;;;;21.85;3.90;;;17.00;32.30;;;;;;5026769;28;20768;-61
2023/11/12 07:55:55;;;;;;;23.17;3.88;;;17.00;32.70;;;;;;5027885;28;20083;-60
2023/11/12 07:58:22;;;;;;;15.45;3.30;;;16.90;32.40;;;;;;5029833;28;20096;-59
2023/11/12 08:00:48;;;;;;;23.20;3.85;;;16.90;33.20;;;;;;5028461;28;20084;-62
2023/11/12 08:03:15;;;;;;;33.95;4.32;;;16.90;32.10;;;;;;5026486;28;20095;-60
2023/11/12 08:05:41;;;;;;;18.85;3.40;;;16.90;31.90;;;;;;5029362;28;20093;-60
2023/11/12 08:08:08;;;;;;;15.85;3.90;;;17.00;32.10;;;;;;5029043;28;20125;-61
2023/11/12 08:10:37;;;;;;;24.40;3.60;;;16.90;32.70;;;;;;5028285;28;20115;-61
2023/11/12 08:13:04;;;;;;;20.73;3.45;;;16.90;32.00;;;;;;5027928;28;20103;-59
2023/11/12 08:15:30;;;;;;;20.35;3.53;;;16.90;31.80;;;;;;5029421;28;20084;-60
2023/11/12 08:17:57;;;;;;;16.88;3.55;;;17.00;31.60;;;;;;5028296;28;20080;-60
2023/11/12 08:20:23;;;;;;;23.42;4.32;;;17.00;31.50;;;;;;5030085;28;20075;-61
2023/11/12 08:22:50;;;;;;;25.45;4.82;;;17.00;31.60;;;;;;5028194;28;20084;-60
2023/11/12 08:25:17;;;;;;;19.05;4.57;;;17.00;31.80;;;;;;5027726;28;20076;-60
2023/11/12 08:27:44;;;;;;;26.73;4.63;;;16.90;32.10;;;;;;5029488;28;20145;-60
2023/11/12 08:30:10;;;;;;;26.95;4.18;;;16.90;32.50;;;;;;5027618;28;20102;-60
2023/11/12 08:32:38;;;;;;;14.95;4.30;;;16.90;32.40;;;;;;5030133;28;20594;-59
2023/11/12 08:35:05;;;;;;;33.10;5.60;;;16.80;32.50;;;;;;5028884;28;20125;-60
2023/11/12 08:37:32;;;;;;;19.35;5.63;;;16.80;33.20;;;;;;5027569;28;20084;-59
2023/11/12 08:39:58;;;;;;;27.70;5.72;;;16.70;32.50;;;;;;5028328;28;20090;-59
2023/11/12 08:42:26;;;;;;;22.30;4.63;;;16.70;32.70;;;;;;5028185;28;20100;-58
2023/11/12 08:44:54;;;;;;;24.17;4.47;;;16.70;32.90;;;;;;5028016;28;20514;-61
2023/11/12 08:47:21;;;;;;;21.48;4.88;;;16.70;33.00;;;;;;5030571;28;20095;-57
2023/11/12 08:49:47;;;;;;;24.20;4.75;;;16.60;33.40;;;;;;5028773;28;20091;-60
2023/11/12 08:52:14;;;;;;;29.75;5.50;;;16.50;33.90;;;;;;5026494;28;20456;-61
2023/11/12 08:54:41;;;;;;;24.05;4.45;;;16.50;34.00;;;;;;5028894;28;20079;-59
2023/11/12 08:57:09;;;;;;;22.30;5.40;;;16.50;34.20;;;;;;5028527;28;20103;-59
2023/11/12 08:59:37;;;;;;;22.08;4.22;;;16.50;34.60;;;;;;5028825;28;20118;-61
2023/11/12 09:02:03;;;;;;;26.73;4.60;;;16.50;35.00;;;;;;5028609;28;20183;-61
2023/11/12 09:04:29;;;;;;;23.48;5.32;;;16.50;35.00;;;;;;5028575;28;20076;-60
2023/11/12 09:06:56;;;;;;;23.40;4.45;;;16.40;34.90;;;;;;5028409;28;20092;-59
2023/11/12 09:09:22;;;;;;;24.27;4.70;;;16.40;34.80;;;;;;5028517;28;20072;-60
2023/11/12 09:11:49;;;;;;;22.95;5.55;;;16.40;35.10;;;;;;5026604;28;20078;-61
2023/11/12 09:14:16;;;;;;;30.85;5.65;;;16.30;36.20;;;;;;5030423;28;20075;-61
2023/11/12 09:16:46;;;;;;;29.10;5.85;;;16.20;36.20;;;;;;5026072;28;20083;-58
2023/11/12 09:19:13;;;;;;;23.60;5.03;;;16.20;36.40;;;;;;5028187;28;20524;-59
2023/11/12 09:21:39;;;;;;;27.17;5.18;;;16.20;36.40;;;;;;5027205;28;20088;-59
2023/11/12 09:24:07;;;;;;;18.55;4.95;;;16.20;37.50;;;;;;5027901;28;20111;-59
2023/11/12 09:26:33;;;;;;;40.88;5.90;;;16.10;37.50;;;;;;5026784;28;20091;-59
2023/11/12 09:29:00;;;;;;;26.98;4.53;;;16.10;36.90;;;;;;5028030;28;20079;-59
2023/11/12 09:31:27;;;;;;;34.90;5.55;;;16.00;35.90;;;;;;5027680;28;20071;-60
2023/11/12 09:33:53;;;;;;;35.35;5.55;;;16.00;34.50;;;;;;5029591;28;20079;-60
2023/11/12 09:36:20;;;;;;;35.65;5.22;;;16.00;34.40;;;;;;5028598;28;20084;-61
2023/11/12 09:38:47;;;;;;;33.78;4.75;;;16.00;35.80;;;;;;5026654;28;20095;-61
2023/11/12 09:41:15;;;;;;;27.38;5.30;;;15.90;35.50;;;;;;5028900;28;20079;-60
2023/11/12 09:43:41;;;;;;;26.95;5.45;;;15.90;34.50;;;;;;5028389;28;20103;-59
2023/11/12 09:46:08;;;;;;;23.40;4.57;;;15.90;34.50;;;;;;5028062;28;20173;-60
2023/11/12 09:48:42;;;;;;;21.02;5.13;;;15.90;34.70;;;;;;5028218;28;20107;-60
2023/11/12 09:51:11;;;;;;;20.92;4.43;;;15.80;34.30;;;;;;5028243;28;20442;-60
2023/11/12 09:53:41;;;;;;;22.15;4.25;;;15.80;34.20;;;;;;5042669;28;20084;-60
2023/11/12 09:56:08;;;;;;;20.88;4.45;;;15.80;34.50;;;;;;5029349;28;20171;-60
2023/11/12 09:58:36;;;;;;;20.95;5.15;;;15.70;33.80;;;;;;5027483;28;20113;-59
2023/11/12 10:01:06;;;;;;;34.45;9.77;;;15.70;33.80;;;;;;5028917;28;20087;-61
2023/11/12 10:03:34;;;;;;;23.42;9.10;;;15.70;33.30;;;;;;5027110;28;20527;-60
2023/11/12 10:06:03;;;;;;;29.83;8.98;;;15.70;33.00;;;;;;5028033;28;20165;-61
2023/11/12 10:08:31;;;;;;;21.25;7.60;;;15.80;33.10;;;;;;5029660;28;20067;-61
2023/11/12 10:11:17;;;;;;;28.85;7.80;;;15.70;32.10;;;;;;5026793;28;20075;-59
2023/11/12 10:13:45;;;;;;;23.80;7.28;;;15.70;32.00;;;;;;5027230;28;20084;-59
2023/11/12 10:16:23;;;;;;;27.80;6.43;;;15.70;31.60;;;;;;5028192;28;20177;-60
2023/11/12 10:18:51;;;;;;;19.95;3.92;;;15.70;31.80;;;;;;5025203;28;20170;-61
2023/11/12 10:21:21;;;;;;;19.90;3.75;;;15.70;31.20;;;;;;5028055;28;20171;-61
2023/11/12 10:24:02;;;;;;;14.88;3.22;;;15.70;31.00;;;;;;5028131;28;20088;-59
2023/11/12 10:26:35;;;;;;;13.90;3.42;;;15.80;30.60;;;;;;5028288;28;20093;-59
2023/11/12 10:29:01;;;;;;;18.30;3.88;;;15.80;31.20;;;;;;5026318;28;20087;-60
2023/11/12 10:31:38;;;;;;;17.52;3.60;;;15.80;31.40;;;;;;5027052;28;20547;-60
2023/11/12 10:34:04;;;;;;;17.05;3.42;;;15.70;32.20;;;;;;5029424;28;20075;-59
2023/11/12 10:36:31;;;;;;;19.15;3.70;;;15.70;32.30;;;;;;5030876;28;20513;-62
2023/11/12 10:39:02;;;;;;;;;;;15.70;34.00;;;;;;5030337;28;20615;-61
2023/11/12 10:41:35;;;;;;;21.92;3.83;;;15.60;34.10;;;;;;5032049;28;20447;-61
2023/11/12 10:44:03;;;;;;;20.20;4.30;;;15.50;34.00;;;;;;5030705;28;20466;-61
2023/11/12 10:46:31;;;;;;;21.15;4.65;;;15.50;34.30;;;;;;5030223;28;20093;-61
2023/11/12 10:48:59;;;;;;;24.15;4.88;;;15.40;34.70;;;;;;5031548;28;20162;-60
2023/11/12 10:51:26;;;;;;;29.92;5.28;;;15.40;35.20;;;;;;5030459;28;20090;-59
2023/11/12 10:53:56;;;;;;;25.83;5.65;;;15.40;35.70;;;;;;5030132;28;20072;-60
2023/11/12 10:56:24;;;;;;;25.63;5.93;;;15.30;36.30;;;;;;5031575;28;20086;-57
2023/11/12 10:58:54;;;;;;;27.65;6.45;;;15.20;36.60;;;;;;5030795;28;21556;-61
2023/11/12 11:01:22;;;;;;;37.85;6.47;;;15.10;36.60;;;;;;5030262;28;20081;-64
2023/11/12 11:03:51;;;;;;;32.78;6.50;;;15.00;36.80;;;;;;5031505;28;20141;-60
2023/11/12 11:06:18;;;;;;;33.25;6.40;;;15.00;36.80;;;;;;5029845;28;20586;-62
2023/11/12 11:08:45;;;;;;;33.40;6.22;;;15.00;36.90;;;;;;5031916;28;20077;-60
2023/11/12 11:11:11;;;;;;;27.88;6.63;;;14.90;37.00;;;;;;5030806;28;20088;-60
2023/11/12 11:13:38;;;;;;;42.45;7.80;;;14.90;37.00;;;;;;5030532;28;20088;-59
2023/11/12 11:16:05;;;;;;;38.97;6.63;;;14.90;37.20;;;;;;5030148;28;20092;-59
2023/11/12 11:18:34;;;;;;;28.92;6.80;;;14.80;38.60;;;;;;5029638;28;20157;-61
2023/11/12 11:21:08;;;;;;;32.58;7.93;;;14.80;38.10;;;;;;5031630;28;20108;-60
2023/11/12 11:23:39;;;;;;;42.67;8.02;;;14.60;37.90;;;;;;5030653;28;20088;-60
2023/11/12 11:26:27;;;;;;;32.85;8.15;;;14.60;38.50;;;;;;5030566;28;20092;-58
2023/11/12 11:29:09;;;;;;;38.22;8.68;;;14.60;38.50;;;;;;5030066;28;20129;-60
2023/11/12 11:31:37;;;;;;;39.20;8.40;;;14.50;38.70;;;;;;5028539;28;20108;-60
2023/11/12 11:34:07;;;;;;;41.63;10.63;;;14.60;39.10;;;;;;5031073;28;20081;-61
2023/11/12 11:36:34;;;;;;;43.40;10.20;;;14.40;38.90;;;;;;5030107;28;20083;-60
2023/11/12 11:39:17;;;;;;;40.97;10.90;;;14.30;39.10;;;;;;5028318;28;20195;-61
2023/11/12 11:41:55;;;;;;;43.78;13.57;;;14.30;39.30;;;;;;5027088;28;21448;-60
2023/11/12 11:44:41;;;;;;;52.75;12.98;;;14.40;40.20;;;;;;5028663;28;20201;-59
2023/11/12 11:47:26;;;;;;;43.97;11.65;;;14.40;40.40;;;;;;5029573;28;20459;-58
2023/11/12 11:49:58;;;;;;;54.53;14.02;;;14.60;40.50;;;;;;5029466;28;20077;-57
2023/11/12 11:52:29;;;;;;;48.35;14.05;;;14.60;40.20;;;;;;5026495;28;20073;-59
2023/11/12 11:55:18;;;;;;;50.28;14.80;;;14.70;40.20;;;;;;5025035;28;20088;-57
2023/11/12 11:57:52;;;;;;;47.95;13.90;;;14.70;40.00;;;;;;5029379;28;20549;-58
2023/11/12 12:00:19;;;;;;;49.65;15.50;;;14.80;40.40;;;;;;5027366;28;20541;-59
2023/11/12 12:02:46;;;;;;;49.28;14.85;;;14.80;40.50;;;;;;5030682;28;20572;-60
2023/11/12 12:05:27;;;;;;;61.28;15.18;;;14.80;40.50;;;;;;5026614;28;20084;-58
2023/11/12 12:08:03;;;;;;;55.58;16.13;;;14.90;41.00;;;;;;5029225;28;20099;-59
2023/11/12 12:10:31;;;;;;;51.80;14.98;;;14.80;41.30;;;;;;5028745;28;20084;-58
2023/11/12 12:12:58;;;;;;;50.92;16.08;;;14.80;41.10;;;;;;5029510;28;20116;-59
2023/11/12 12:15:25;;;;;;;43.63;14.95;;;14.90;41.60;;;;;;5028077;28;20440;-60
2023/11/12 12:17:51;;;;;;;55.95;15.18;;;14.90;42.10;;;;;;5028781;28;20071;-60
2023/11/12 12:20:17;;;;;;;;;;;14.80;41.90;;;;;;5027849;28;20075;-59
2023/11/12 12:22:44;;;;;;;46.72;15.82;;;14.90;41.90;;;;;;5030337;28;20421;-61
2023/11/12 12:25:10;;;;;;;50.67;15.20;;;14.80;41.80;;;;;;5028202;28;20104;-59
2023/11/12 12:27:37;;;;;;;41.63;14.20;;;14.70;41.50;;;;;;5028038;28;20826;-60
2023/11/12 12:30:07;;;;;;;36.80;14.00;;;14.70;42.20;;;;;;5029639;28;20081;-61
2023/11/12 12:32:37;;;;;;;48.35;15.15;;;14.80;41.90;;;;;;5029425;28;20081;-59